Terminal Aerodrome Forecast
Issued by NWS

Home | Current Version | Previous Version | Text Only | Print | Product List | Glossary On
Versions: 1 2 3 4 5 6 7 8 9 10 11 12 13 14 15 16 17 18 19 20 21 22 23 24 25 26
000
FTPQ31 PGUM 051731
TAFGUM
TAF

TAF
PTYA 051731Z 0518/0618 01050G65KT 3SM +SHRA SCT007 BKN015 OVC050
      TEMPO 0518/0520 01060G75KT 1SM +SHRA SCT005 OVC010
     FM052000 36055G70KT 2SM +SHRA SCT005 OVC010
     FM060000 20050G60KT 3SM +SHRA SCT007 OVC020
     FM060500 17030G40KT 5SM SHRA SCT010 OVC030
     FM061200 17020G30KT 6SM -RA SCT010 SCT030 BKN060=

USA.gov is the U.S. government's official web portal to all federal, state and local government web resources and services.